Terminal Aerodrome Forecast
Issued by NWS

Home | Current Version | Previous Version | Text Only | Print | Product List | Glossary On
Versions: 1 2 3 4 5 6 7 8 9 10 11 12 13 14 15 16 17
876
FTUS43 KPAH 262339
TAFCGI
TAF
KCGI 262339Z 2700/2724 04012G22KT P6SM VCTS BKN060 OVC100CB
     FM270100 17008G13KT P6SM -SHRA BKN045 OVC120
     FM270630 18010G18KT 5SM -SHRA BR BKN025 OVC050
      TEMPO 2711/2714 3SM -TSRA BKN005CB
     FM271600 17013G23KT P6SM BKN200
      TEMPO 2721/2724 BKN030=

USA.gov is the U.S. government's official web portal to all federal, state and local government web resources and services.